Archival Weather

South Haven Area Rgnl

South Haven, Michigan (KLWA)

Report from: Thursday, September 21, 2023 10:35 AM EDT
Current time: Tuesday, February 27, 2024 4:56 AM EST

Current weather – Weather history – Daily summaries
Weather forecast

Temperature20.9°C (69.6°F)
Dew point15.5°C (59.9°F)
Winds 4 kts (2.1 m/s, 4.6 mph) South-Southeast (160°)
Visibility10 mi. (16.1 km)
Clouds Sky clear
Altimeter30.24 in.Hg (1024 mB)
Relative humidity71 %
Density altitude570 ft. (174 m)
Remarks Fully automated report
Automated weather observing station with precipitation discriminator
Flight conditions Visual Meteorological Conditions
Raw dataKLWA 211435Z AUTO 16004KT 10SM CLR 21/16 A3024 RMK AO2 T02090155
An error has occurred. This application may no longer respond until reloaded. Reload 🗙